レシフェ・グアララペス国際空港の過去48時間の天気

レシフェ・グアララペス国際空港 (Recife Aeroporto )

現在時刻: 7/4 23:32 -03 (7/5 02:32 UTC) 以下の時間は現地時間です。

過去48時間のMETAR気象情報
時間 風向 風速(m/s) 視程 気温(℃) 湿度(%) 気圧(hPa) 天気現象
4 23:00 南南東 8 10km以上 26 74 1016
4 22:00 南東 6 10km以上 26 79 1016
4 21:00 南東 6 10km以上 26 79 1016 周辺でしゅう雨
4 20:00 南東 6 8000m 26 79 1015 周辺でしゅう雨
4 19:00 南東 6 8000m 26 79 1015 周辺でしゅう雨
4 18:00 南東 7 8000m 27 74 1015 周辺でしゅう雨
4 17:00 南東 7 10km以上 27 74 1014
4 16:00 4 8000m 25 89 1014 周辺でしゅう雨
4 15:22 5 5000m 24 94 1014 弱いしゅう雨 もや
4 15:00 南南東 5 3000m 25 94 1014 弱い雨
4 14:00 南南東 7 9000m 26 89 1014 周辺でしゅう雨
4 13:00 南東 5 5000m 25 94 1015 弱いしゅう雨 もや
4 12:00 南南東 5 9000m 26 84 1016 周辺でしゅう雨
4 11:00 3 9000m 25 94 1016 周辺でしゅう雨
4 10:13 4 4500m 25 89 1016 しゅう雨 もや
4 10:00 東南東 4 5000m 26 84 1016 弱いしゅう雨 もや
4 09:00 4 9000m 26 89 1017 弱いしゅう雨
4 08:00 東北東 4 8000m 24 94 1017 弱いしゅう雨
4 07:00 南東 4 10km以上 26 84 1016
4 06:00 南東 5 10km以上 26 84 1015
4 05:00 3 10km以上 24 94 1015
4 04:00 南南東 4 10km以上 24 89 1015
4 03:00 南南西 3 10km以上 24 94 1015
4 02:00 2 10km以上 24 94 1015
4 01:00 南東 2 10km以上 25 89 1016
4 00:00 2 10km以上 25 89 1017
3 23:00 4 10km以上 25 94 1017
3 22:00 南東 5 10km以上 26 79 1017
3 21:00 南南東 4 10km以上 25 83 1017
3 20:00 南東 6 10km以上 26 84 1017
3 19:00 南南東 6 10km以上 26 84 1016
3 18:00 南東 7 5000m 25 83 1016 弱い雨 もや
3 17:46 南南東 7 3000m 26 84 1017 強い雨 煙霧
3 17:00 南南東 7 8000m 27 79 1016
3 16:00 南南東 6 5000m 26 89 1016 もや
3 15:00 南南東 8 5000m 24 94 1016 弱い雨 もや
3 14:52 南南東 8 3500m 24 89 1016 弱い雨 もや
3 14:00 8 10km以上 28 74 1016
3 13:00 南南東 8 10km以上 28 70 1016
3 12:00 南南東 8 10km以上 28 66 1017
3 11:00 南南東 8 10km以上 28 70 1018
3 10:00 南南東 6 10km以上 27 74 1018
3 09:00 南南東 8 10km以上 27 74 1017
3 08:00 南南東 8 10km以上 27 66 1017
3 07:00 南南東 8 10km以上 26 70 1017
3 06:00 南南東 8 10km以上 26 79 1016
3 05:00 5 9000m 24 89 1016 周辺でしゅう雨
3 04:00 南南西 5 10km以上 24 89 1015
3 03:00 南南西 6 10km以上 24 83 1015
3 02:00 南南西 4 10km以上 24 83 1016
3 01:00 6 10km以上 25 78 1016
3 00:00 6 10km以上 26 74 1017
SBRF 050200Z 15016KT 9999 SCT025 26/21 Q1016
SBRF 050100Z 14012KT 9999 SCT025 SCT070 26/22 Q1016
SBRF 050000Z 14012KT 9999 VCSH FEW025 SCT070 26/22 Q1016
SBRF 042300Z 14011KT 8000 VCSH BKN025 BKN050 26/22 Q1015
SBRF 042200Z 14012G25KT 110V170 8000 VCSH SCT012 SCT023 OVC060 26/22 Q1015
SBRF 042100Z 14013KT 8000 VCSH SCT012 SCT025 OVC050 27/22 Q1015
SBRF 042000Z 14013KT 9999 FEW023 OVC050 27/22 Q1014
SBRF 041900Z 17007KT 130V210 8000 VCSH SCT012 BKN023 BKN050 25/23 Q1014
SBRF 041822Z 18010KT 5000 -SHRA BR SCT010 OVC015 24/23 Q1014
SBRF 041800Z 16010KT 3000 -RA OVC010 25/24 Q1014
SBRF 041700Z 15013KT 9000 VCSH SCT008 BKN018 BKN050 26/24 Q1014
SBRF 041600Z 14010KT 100V170 5000 -SHRA BR SCT008 BKN018 BKN050 25/24 Q1015
SBRF 041500Z 15009KT 9000 VCSH FEW008 BKN018 BKN050 26/23 Q1016
SBRF 041400Z 08005KT 9000 VCSH FEW008 BKN015 BKN050 25/24 Q1016 RESHRA
SBRF 041313Z 10007KT 070V150 4500 SHRA BR FEW008 BKN015 BKN050 25/23 Q1016
SBRF 041300Z 11007KT 080V150 5000 -SHRA BR FEW008 BKN015 BKN050 26/23 Q1016
SBRF 041200Z 10007KT 060V130 9000 -SHRA SCT008 BKN015 BKN050 26/24 Q1017
SBRF 041100Z 07007KT 030V110 8000 3500N -SHRA FEW008 BKN015 BKN050 24/23 Q1017
SBRF 041000Z 14007KT 9999 SCT015 26/23 Q1016
SBRF 040900Z 14010KT 9999 FEW015 SCT020 26/23 Q1015
SBRF 040800Z 18006KT 9999 SCT012 BKN018 24/23 Q1015
SBRF 040700Z 15008KT 9999 SCT015 SCT020 24/22 Q1015
SBRF 040600Z 21005KT 9999 BKN020 24/23 Q1015
SBRF 040500Z 17003KT 9999 BKN024 24/23 Q1015
SBRF 040400Z 14004KT 9999 FEW015 BKN023 25/23 Q1016
SBRF 040300Z 17004KT 9999 SCT015 BKN022 25/23 Q1017
SBRF 040200Z 17007KT 9999 FEW013 BKN020 25/24 Q1017
SBRF 040100Z 14009KT 9999 FEW015 SCT018 26/22 Q1017
SBRF 040000Z 16008KT 9999 SCT017 SCT060 25/22 Q1017
SBRF 032300Z 14012KT 9999 SCT017 BKN060 26/23 Q1017
SBRF 032200Z 16012KT 9999 SCT010 SCT015 BKN060 26/23 Q1016
SBRF 032100Z 14013KT 5000 -RA BR SCT010 BKN015 BKN060 25/22 Q1016 RERA
SBRF 032046Z 16014G24KT 3000 +RA HZ BKN010 BKN015 BKN060 26/23 Q1017
SBRF 032000Z 15013KT 8000 SCT010 BKN015 BKN060 27/23 Q1016
SBRF 031900Z 16011KT 5000 BR SCT010 BKN015 BKN060 26/24 Q1016
SBRF 031800Z 16015KT 5000 -RA BR SCT010 BKN015 BKN060 24/23 Q1016
SBRF 031752Z 16016KT 3500 -RA BR BKN010 BKN015 BKN060 24/22 Q1016
SBRF 031700Z 17015KT 9999 BKN025 BKN060 28/23 Q1016
SBRF 031600Z 16016KT 9999 SCT025 BKN060 28/22 Q1016
SBRF 031500Z 16015KT 9999 SCT025 BKN060 28/21 Q1017
SBRF 031400Z 16015KT 9999 SCT025 OVC060 28/22 Q1018
SBRF 031300Z 15012KT 9999 FEW025 OVC050 27/22 Q1018
SBRF 031200Z 16016KT 9999 FEW025 BKN050 27/22 Q1017
SBRF 031100Z 15015KT 9999 SCT025 BKN050 27/20 Q1017
SBRF 031000Z 16016KT 9999 SCT025 BKN050 26/20 Q1017
SBRF 030900Z 16015KT 9999 BKN023 FEW025TCU 26/22 Q1016
SBRF 030800Z 19010KT 9000 VCSH BKN023 24/22 Q1016
SBRF 030700Z 20009KT 9999 SCT022 BKN060 24/22 Q1015
SBRF 030600Z 20011KT 9999 SCT022 BKN060 24/21 Q1015
SBRF 030500Z 21007KT 9999 SCT022 BKN060 24/21 Q1016
SBRF 030400Z 18011KT 9999 FEW025 SCT070 25/21 Q1016
SBRF 030300Z 18011KT 9999 FEW025 SCT070 26/21 Q1017